Data for 06/14/2015

Time Sea-Level Adjusted Pressure Absolute Pressure Temperature Relative Humidity Dew Point   
(mb) (inHg) (mb) (inHg) (C) (F) (%) (C) (F)
00:05 1017 30.03 846 24.98 12.5 54.4 38 -1.6 29.2
00:10 1017 30.03 846 24.98 12.3 54.1 37 -1.9 28.6
00:15 1017 30.03 846 24.98 12.1 53.7 38 -1.9 28.6
00:20 1017 30.03 846 24.98 12.1 53.7 35 -2.8 27
00:25 1017 30.03 846 24.98 12.2 53.9 34 -3.1 26.5
00:30 1017 30.03 846 24.98 12.1 53.9 35 -3 26.7
00:35 1017 30.03 846 24.98 12.1 53.7 36 -2.6 27.4
00:40 1017 30.03 846 24.98 11.9 53.4 36 -2.7 27.1
00:45 1017 30.03 846 24.98 11.7 53 40 -1.5 29.2
00:50 1017 30.03 846 24.98 11.3 52.4 45 -0 32
00:55 1017 30.03 846 24.98 11.3 52.3 45 -0.2 31.7
01:00 1017 30.03 846 24.98 11.6 52.9 41 -1.3 29.6
01:05 1017 30.03 846 24.98 12 53.6 39 -1.4 29.5
01:10 1017 30.03 846 24.98 12.3 54.2 29 -5 23
01:15 1017 30.03 846 24.98 12.7 54.9 34 -2.7 27.1
01:20 1017 30.03 846 24.98 12.6 54.6 35 -2.3 27.8
01:25 1017 30.03 846 24.98 12.4 54.3 37 -1.8 28.7
01:30 1017 30.03 846 24.98 12.4 54.2 38 -1.6 29.2
01:35 1017 30.03 846 24.98 12.2 53.9 41 -0.5 31.1
01:40 1017 30.03 846 24.98 11.9 53.4 42 -0.4 31.2
01:45 1017 30.03 846 24.98 11.5 52.7 47 0.8 33.4
01:50 1017 30.03 846 24.98 11.3 52.3 49 1 33.8
01:55 1017 30.03 847 25.01 11 51.7 53 1.7 35
02:00 1017 30.03 847 25.01 10.7 51.2 52 1.3 34.4
02:05 1017 30.03 847 25.01 10.7 51.3 54 1.8 35.2
02:10 1017 30.03 847 25.01 10.9 51.6 57 2.7 36.9
02:15 1017 30.03 846 24.98 10.7 51.2 58 2.8 37
02:20 1017 30.03 847 25.01 10.3 50.6 63 3.7 38.6
02:25 1017 30.03 847 25.01 10.1 50.2 60 2.7 36.9
02:30 1017 30.03 847 25.01 10.2 50.4 57 2.1 35.8
02:35 1017 30.03 847 25.01 10.2 50.4 58 2.3 36.2
02:40 1017 30.03 847 25.01 10.2 50.4 58 2.5 36.4
02:45 1017 30.03 847 25.01 10.1 50.2 60 2.7 36.9
02:50 1017 30.03 847 25.01 10.1 50.1 58 2.3 36.2
02:55 1018 30.06 847 25.01 9.9 49.9 58 2.1 35.8
03:00 1018 30.06 847 25.01 9.7 49.4 57 1.6 34.8
03:05 1018 30.06 847 25.01 9.3 48.8 66 3.3 37.9
03:10 1018 30.06 847 25.01 9.3 48.7 69 3.9 38.9
03:15 1018 30.06 847 25.01 9.7 49.5 70 4.6 40.3
03:20 1018 30.06 847 25.01 10.2 50.3 69 4.9 40.8
03:25 1018 30.06 847 25.01 10.5 50.9 68 5 40.9
03:30 1018 30.06 847 25.01 10.6 51.1 68 5.1 41.1
03:35 1018 30.06 847 25.01 10.7 51.2 68 5.1 41.2
03:40 1018 30.06 847 25.01 10.6 51.1 69 5.1 41.2
03:45 1018 30.06 847 25.01 10.5 51 69 5.1 41.2
03:50 1018 30.06 847 25.01 10.5 50.8 69 5.1 41.1
03:55 1018 30.06 847 25.01 10.5 50.9 69 5 41
04:00 1018 30.06 847 25.01 10.5 50.9 69 5.1 41.2
04:05 1018 30.06 847 25.01 10.4 50.6 70 5.1 41.2
04:10 1018 30.06 847 25.01 10.3 50.5 70 5 41
04:15 1018 30.06 847 25.01 10.4 50.6 69 5 41.1
04:20 1018 30.06 847 25.01 10.3 50.5 70 5 41.1
04:25 1018 30.06 847 25.01 10.4 50.7 70 5.1 41.1
04:30 1018 30.06 847 25.01 10.4 50.7 69 5.1 41.1
04:35 1018 30.06 847 25.01 10.4 50.7 70 5.1 41.2
04:40 1018 30.06 847 25.01 10.4 50.7 70 5.1 41.2
04:45 1018 30.06 847 25.01 10.4 50.7 70 5.1 41.3
04:50 1018 30.06 847 25.01 10.3 50.5 70 5.1 41.2
04:55 1018 30.06 848 25.04 10.3 50.5 71 5.2 41.4
05:00 1018 30.06 848 25.04 10.2 50.4 71 5.1 41.3
05:05 1018 30.06 848 25.04 10.2 50.4 71 5.2 41.3
05:10 1018 30.06 848 25.04 10.3 50.5 71 5.2 41.4
05:15 1019 30.09 848 25.04 10.3 50.5 71 5.2 41.3
05:20 1019 30.09 848 25.04 10.3 50.5 71 5.2 41.4
05:25 1019 30.09 848 25.04 10.3 50.5 70 5.1 41.3
05:30 1019 30.09 848 25.04 10.4 50.6 70 5.2 41.3
05:35 1019 30.09 848 25.04 10.5 50.8 69 5.1 41.2
05:40 1019 30.09 848 25.04 10.7 51.2 69 5.2 41.4
05:45 1019 30.09 848 25.04 10.6 51.1 69 5.3 41.5
05:50 1019 30.09 848 25.04 10.6 51.1 69 5.3 41.5
05:55 1019 30.09 848 25.04 10.6 51.1 69 5.3 41.6
06:00 1019 30.09 848 25.04 10.6 51.1 70 5.3 41.6
06:05 1019 30.09 848 25.04 10.6 51.1 70 5.4 41.7
06:10 1019 30.09 848 25.04 10.7 51.3 70 5.5 41.8
06:15 1019 30.09 848 25.04 10.7 51.3 70 5.5 41.9
06:20 1019 30.09 848 25.04 10.7 51.3 69 5.4 41.6
06:25 1019 30.09 848 25.04 10.7 51.2 69 5.3 41.5
06:30 1019 30.09 848 25.04 10.8 51.4 68 5.2 41.4
06:35 1019 30.09 848 25.04 10.8 51.5 68 5.3 41.5
06:40 1019 30.09 848 25.04 10.9 51.7 68 5.2 41.4
06:45 1019 30.09 848 25.04 11.3 52.4 66 5.1 41.2
06:50 1019 30.09 848 25.04 12 53.5 63 5.2 41.3
06:55 1019 30.09 849 25.07 12.4 54.3 63 5.5 42
07:00 1019 30.09 849 25.07 12.4 54.2 57 4.1 39.4
07:05 1019 30.09 849 25.07 12.7 54.9 57 4.4 40
07:10 1019 30.09 849 25.07 12.4 54.4 56 4.1 39.3
07:15 1019 30.09 849 25.07 11.9 53.4 59 4.1 39.4
07:20 1019 30.09 849 25.07 11.6 52.8 59 3.9 39
07:25 1019 30.09 849 25.07 11.2 52.1 57 3.1 37.6
07:30 1020 30.12 849 25.07 10.9 51.7 57 2.9 37.1
07:35 1020 30.12 849 25.07 11 51.7 57 2.8 37
07:40 1020 30.12 849 25.07 10.8 51.4 57 2.7 36.8
07:45 1020 30.12 849 25.07 10.7 51.2 57 2.5 36.5
07:50 1020 30.12 849 25.07 10.6 51.1 58 2.7 36.8
07:55 1020 30.12 849 25.07 11.1 52 55 2.6 36.6
08:00 1020 30.12 849 25.07 11.4 52.5 55 2.7 36.9
08:05 1020 30.12 849 25.07 11.7 53.1 53 2.5 36.5
08:10 1020 30.12 849 25.07 12.3 54.1 52 2.8 37
08:15 1020 30.12 849 25.07 12.6 54.8 53 3.3 37.9
08:20 1020 30.12 849 25.07 13.1 55.5 50 3.1 37.5
08:25 1020 30.12 849 25.07 13.9 57.1 47 3 37.5
08:30 1020 30.12 849 25.07 13.9 57 48 3.2 37.7
08:35 1020 30.12 849 25.07 14.1 57.3 51 4.2 39.6
08:40 1020 30.12 849 25.07 13 55.4 54 3.9 39
08:45 1020 30.12 849 25.07 13.2 55.8 52 3.6 38.5
08:50 1020 30.12 849 25.07 13.8 56.8 51 3.9 38.9
08:55 1020 30.12 849 25.07 13.9 57 51 4.1 39.4
09:00 1020 30.12 849 25.07 13.9 56.9 51 4 39.3
09:05 1020 30.12 849 25.07 13.5 56.2 53 4.3 39.7
09:10 1020 30.12 849 25.07 14 57.2 50 3.9 39.1
09:15 1020 30.12 849 25.07 14.2 57.6 51 4.2 39.6
09:20 1020 30.12 849 25.07 14.3 57.8 52 4.8 40.7
09:25 1020 30.12 849 25.07 14.6 58.2 49 4.1 39.3
09:30 1020 30.12 849 25.07 14.1 57.3 53 4.7 40.5
09:35 1020 30.12 849 25.07 14.5 58.1 51 4.6 40.2
09:40 1020 30.12 849 25.07 14.3 57.8 52 4.6 40.3
09:45 1020 30.12 849 25.07 14.2 57.5 52 4.5 40
09:50 1020 30.12 849 25.07 14.3 57.8 51 4.5 40.1
09:55 1020 30.12 849 25.07 15.2 59.3 50 5 41.1
10:00 1020 30.12 849 25.07 15.7 60.2 50 5.4 41.7
10:05 1020 30.12 849 25.07 15.8 60.5 48 4.9 40.9
10:10 1020 30.12 849 25.07 16.1 61 49 5.4 41.7
10:15 1020 30.12 849 25.07 15.5 59.8 51 5.3 41.6
10:20 1020 30.12 849 25.07 16.1 61 49 5.4 41.8
10:25 1020 30.12 849 25.07 15.6 60 50 5.2 41.4
10:30 1020 30.12 849 25.07 15.5 59.9 49 5 41
10:35 1020 30.12 849 25.07 15.6 60.1 50 5.4 41.8
10:40 1020 30.12 849 25.07 16 60.8 50 5.6 42.1
10:45 1020 30.12 849 25.07 15.6 60 52 5.9 42.6
10:50 1020 30.12 849 25.07 15 59 53 5.5 42
10:55 1020 30.12 849 25.07 15.9 60.6 49 5.3 41.5
11:00 1020 30.12 849 25.07 15.8 60.4 49 5.1 41.1
11:05 1020 30.12 849 25.07 16.1 60.9 47 5 41
11:10 1020 30.12 849 25.07 16 60.8 48 5 41
11:15 1020 30.12 849 25.07 15.8 60.4 48 4.9 40.9
11:20 1020 30.12 849 25.07 15.9 60.7 48 5.1 41.3
11:25 1020 30.12 849 25.07 16.3 61.3 47 5.2 41.3
11:30 1020 30.12 849 25.07 16.3 61.3 48 5.4 41.7
11:35 1020 30.12 849 25.07 16 60.9 48 5.1 41.2
11:40 1020 30.12 849 25.07 16.2 61.2 47 5.1 41.2
11:45 1020 30.12 849 25.07 16.2 61.1 47 5 41
11:50 1020 30.12 849 25.07 16.6 61.8 46 4.9 40.9
11:55 1020 30.12 849 25.07 16.9 62.4 47 5.5 41.9
12:00 1020 30.12 849 25.07 16.4 61.5 47 5.3 41.5
12:05 1020 30.12 849 25.07 16.5 61.6 47 5.2 41.4
12:10 1020 30.12 849 25.07 16.7 62.1 46 5.3 41.5
12:15 1020 30.12 849 25.07 16.6 61.8 47 5.3 41.5
12:20 1020 30.12 849 25.07 16.9 62.4 45 5 40.9
12:25 1020 30.12 849 25.07 16.6 61.9 48 5.7 42.3
12:30 1020 30.12 849 25.07 16.6 61.8 47 5.3 41.5
12:35 1020 30.12 849 25.07 16.5 61.7 47 5.2 41.3
12:40 1020 30.12 849 25.07 16.8 62.2 46 5.1 41.1
12:45 1020 30.12 849 25.07 17.1 62.8 44 5 41
12:50 1020 30.12 849 25.07 17.1 62.8 47 5.8 42.4
12:55 1020 30.12 849 25.07 16.8 62.3 45 5 41
13:00 1020 30.12 849 25.07 17.1 62.8 45 5.1 41.2
13:05 1020 30.12 849 25.07 17.3 63.2 46 5.7 42.3
13:10 1020 30.12 849 25.07 17 62.5 46 5.3 41.6
13:15 1020 30.12 849 25.07 17 62.5 46 5.4 41.8
13:20 1020 30.12 849 25.07 17.4 63.2 45 5.4 41.6
13:25 1020 30.12 849 25.07 17.5 63.4 45 5.5 41.9
13:30 1019 30.09 849 25.07 17.6 63.6 43 4.9 40.7
13:35 1019 30.09 849 25.07 18 64.4 42 5.1 41.2
13:40 1020 30.12 849 25.07 17.6 63.6 44 5.3 41.5
13:45 1019 30.09 849 25.07 17.3 63.2 44 5.2 41.3
13:50 1019 30.09 849 25.07 17.9 64.3 43 5.3 41.5
13:55 1019 30.09 849 25.07 17.9 64.3 41 4.6 40.4
14:00 1019 30.09 849 25.07 17.7 63.9 44 5.5 42
14:05 1020 30.12 849 25.07 17.8 64.1 44 5.7 42.2
14:10 1020 30.12 849 25.07 17.9 64.3 43 5.2 41.4
14:15 1020 30.12 849 25.07 17.4 63.3 45 5.5 42
14:20 1020 30.12 849 25.07 17.8 64.1 45 6 42.8
14:25 1020 30.12 849 25.07 17.4 63.3 44 5.2 41.3
14:30 1020 30.12 849 25.07 17.6 63.7 45 5.8 42.4
14:35 1020 30.12 849 25.07 17.4 63.3 45 5.4 41.7
14:40 1020 30.12 849 25.07 17.7 63.8 43 5.2 41.3
14:45 1020 30.12 849 25.07 17.3 63.1 43 4.8 40.6
14:50 1019 30.09 849 25.07 17.2 63 46 5.5 41.9
14:55 1020 30.12 849 25.07 16.9 62.3 46 5.2 41.3
15:00 1019 30.09 849 25.07 17 62.6 46 5.4 41.7
15:05 1019 30.09 849 25.07 17.3 63.1 44 5 41.1
15:10 1019 30.09 849 25.07 17.5 63.5 45 5.4 41.8
15:15 1019 30.09 849 25.07 17.5 63.4 46 5.8 42.4
15:20 1019 30.09 849 25.07 17.3 63.1 46 5.7 42.3
15:25 1019 30.09 849 25.07 17.5 63.6 44 5.4 41.7
15:30 1019 30.09 849 25.07 17 62.7 46 5.4 41.7
15:35 1019 30.09 849 25.07 17 62.6 46 5.5 41.9
15:40 1019 30.09 849 25.07 16.9 62.5 47 5.7 42.2
15:45 1019 30.09 849 25.07 17 62.7 48 6 42.8
15:50 1019 30.09 849 25.07 16.5 61.8 47 5.3 41.6
15:55 1019 30.09 849 25.07 16.5 61.8 48 5.7 42.3
16:00 1019 30.09 849 25.07 16.3 61.4 48 5.4 41.8
16:05 1019 30.09 849 25.07 16.4 61.5 48 5.3 41.6
16:10 1019 30.09 849 25.07 16.6 62 47 5.3 41.6
16:15 1020 30.12 849 25.07 16.7 62 48 5.6 42
16:20 1020 30.12 849 25.07 16.6 61.9 48 5.7 42.3
16:25 1020 30.12 849 25.07 16.3 61.4 50 5.9 42.7
16:30 1020 30.12 849 25.07 16.4 61.5 49 5.8 42.5
16:35 1020 30.12 849 25.07 16.1 61 50 5.9 42.6
16:40 1020 30.12 849 25.07 15.8 60.5 51 5.7 42.2
16:45 1020 30.12 849 25.07 15.9 60.5 51 5.9 42.6
16:50 1020 30.12 849 25.07 15.4 59.7 53 6 42.8
16:55 1020 30.12 849 25.07 15.3 59.5 52 5.6 42
17:00 1020 30.12 849 25.07 15.4 59.8 53 6.1 43
17:05 1020 30.12 849 25.07 15.7 60.2 53 6.1 43.1
17:10 1020 30.12 849 25.07 15.5 59.9 53 6.1 42.9
17:15 1020 30.12 849 25.07 15.4 59.8 53 6 42.9
17:20 1020 30.12 849 25.07 15.2 59.3 54 5.9 42.7
17:25 1020 30.12 849 25.07 15 59.1 53 5.7 42.3
17:30 1020 30.12 849 25.07 15.2 59.3 55 6.2 43.2
17:35 1020 30.12 849 25.07 15.1 59.2 54 6 42.7
17:40 1020 30.12 849 25.07 15.1 59.2 54 6.1 42.9
17:45 1020 30.12 849 25.07 14.7 58.5 55 6 42.8
17:50 1020 30.12 849 25.07 14.7 58.5 55 6 42.8
17:55 1020 30.12 849 25.07 14.7 58.5 56 6.2 43.1
18:00 1020 30.12 849 25.07 14.5 58.2 56 6 42.9
18:05 1020 30.12 849 25.07 14.3 57.8 56 5.7 42.3
18:10 1020 30.12 849 25.07 14.3 57.7 56 5.7 42.2
18:15 1020 30.12 849 25.07 14.2 57.6 56 5.6 42.1
18:20 1020 30.12 849 25.07 14.2 57.5 56 5.6 42.1
18:25 1020 30.12 849 25.07 14.1 57.4 56 5.5 41.9
18:30 1020 30.12 849 25.07 13.9 57 56 5.4 41.7
18:35 1020 30.12 849 25.07 13.8 56.8 57 5.6 42
18:40 1020 30.12 849 25.07 13.8 56.8 57 5.6 42
18:45 1020 30.12 849 25.07 13.8 56.8 57 5.5 41.9
18:50 1020 30.12 849 25.07 13.7 56.7 58 5.6 42
18:55 1020 30.12 850 25.1 13.7 56.7 57 5.5 42
19:00 1020 30.12 850 25.1 13.7 56.7 58 5.7 42.3
19:05 1020 30.12 850 25.1 13.7 56.6 59 5.8 42.4
19:10 1020 30.12 850 25.1 13.5 56.4 59 5.7 42.3
19:15 1021 30.15 850 25.1 13.5 56.2 60 5.8 42.5
19:20 1021 30.15 850 25.1 13.4 56.1 60 5.9 42.6
19:25 1021 30.15 850 25.1 13.2 55.8 61 5.8 42.5
19:30 1021 30.15 850 25.1 13.2 55.7 61 5.8 42.4
19:35 1021 30.15 850 25.1 13 55.4 61 5.7 42.3
19:40 1021 30.15 850 25.1 12.9 55.2 62 5.8 42.4
19:45 1021 30.15 850 25.1 12.8 55 61 5.5 41.9
19:50 1021 30.15 850 25.1 12.6 54.8 62 5.5 41.9
19:55 1021 30.15 850 25.1 12.5 54.6 62 5.5 41.9
20:00 1021 30.15 850 25.1 12.5 54.4 62 5.4 41.8
20:05 1021 30.15 850 25.1 12.4 54.3 62 5.4 41.7
20:10 1021 30.15 850 25.1 12.3 54.1 62 5.4 41.7
20:15 1021 30.15 850 25.1 12.3 54.1 62 5.3 41.6
20:20 1021 30.15 851 25.13 12.2 54 63 5.3 41.6
20:25 1021 30.15 851 25.13 12.2 54 62 5.3 41.5
20:30 1021 30.15 851 25.13 12.2 54 63 5.4 41.7
20:35 1022 30.18 851 25.13 12.1 53.8 63 5.4 41.7
20:40 1022 30.18 851 25.13 12 53.6 64 5.4 41.7
20:45 1022 30.18 851 25.13 11.9 53.4 64 5.4 41.8
20:50 1022 30.18 851 25.13 11.8 53.3 65 5.5 42
20:55 1022 30.18 851 25.13 11.8 53.2 65 5.4 41.7
21:00 1022 30.18 851 25.13 11.8 53.3 65 5.5 41.8
21:05 1022 30.18 851 25.13 11.8 53.2 66 5.6 42.1
21:10 1022 30.18 851 25.13 11.6 52.9 66 5.5 41.9
21:15 1022 30.18 851 25.13 11.6 52.9 65 5.4 41.7
21:20 1022 30.18 851 25.13 11.6 52.9 65 5.3 41.6
21:25 1022 30.18 851 25.13 11.7 53 65 5.4 41.6
21:30 1022 30.18 851 25.13 11.7 53 65 5.3 41.6
21:35 1022 30.18 851 25.13 11.7 53.1 65 5.5 41.8
21:40 1022 30.18 851 25.13 11.7 53 65 5.4 41.8
21:45 1022 30.18 852 25.16 11.7 53.1 65 5.4 41.6
21:50 1022 30.18 852 25.16 11.8 53.2 65 5.5 41.9
21:55 1022 30.18 852 25.16 11.8 53.2 65 5.4 41.7
22:00 1022 30.18 852 25.16 11.8 53.3 65 5.4 41.7
22:05 1023 30.21 852 25.16 11.9 53.4 64 5.5 41.8
22:10 1023 30.21 852 25.16 11.9 53.3 65 5.5 41.9
22:15 1023 30.21 852 25.16 11.8 53.3 65 5.5 41.9
22:20 1023 30.21 852 25.16 11.9 53.5 65 5.5 41.9
22:25 1023 30.21 852 25.16 11.9 53.4 65 5.6 42
22:30 1023 30.21 852 25.16 11.9 53.5 65 5.5 42
22:35 1023 30.21 852 25.16 12 53.6 65 5.6 42.1
22:40 1023 30.21 852 25.16 11.9 53.5 65 5.7 42.2
22:45 1023 30.21 852 25.16 11.9 53.4 65 5.7 42.2
22:50 1023 30.21 852 25.16 11.9 53.4 65 5.7 42.2
22:55 1023 30.21 852 25.16 11.9 53.4 66 5.8 42.4
23:00 1023 30.21 852 25.16 11.8 53.3 66 5.6 42.1
23:05 1023 30.21 852 25.16 11.9 53.3 66 5.7 42.3
23:10 1023 30.21 852 25.16 11.9 53.4 66 5.8 42.4
23:15 1023 30.21 852 25.16 11.8 53.3 66 5.7 42.3
23:20 1023 30.21 852 25.16 11.8 53.2 66 5.7 42.3
23:25 1023 30.21 852 25.16 11.8 53.2 65 5.6 42.1
23:30 1023 30.21 852 25.16 11.9 53.3 65 5.6 42.1
23:35 1023 30.21 852 25.16 11.9 53.4 66 5.7 42.2
23:40 1023 30.21 852 25.16 11.8 53.3 65 5.5 42
23:45 1023 30.21 852 25.16 11.9 53.3 65 5.5 42
23:50 1023 30.21 852 25.16 11.9 53.4 65 5.6 42.2
23:55 1023 30.21 852 25.16 11.8 53.3 66 5.6 42.1
24:00 1023 30.21 852 25.16 11.8 53.2 65 5.5 41.9